Time;durP1;ratioP1;P1;durP2;ratioP2;P2;SDS_P1;SDS_P2;PMS_P1;PMS_P2;Temp;Humidity;BMP_temperature;BMP_pressure;BME280_temperature;BME280_humidity;BME280_pressure;Samples;Min_cycle;Max_cycle;Signal;HPM_P1;HPM_P2
2021/11/01 00:00:16;;;;;;;105.03;34.65;;;;;;;1.62;100.00;101895.89;1629697;88;21632;-86
2021/11/01 00:02:44;;;;;;;96.95;34.50;;;;;;;1.63;100.00;101896.72;1629753;88;21743;-80
2021/11/01 00:05:11;;;;;;;98.70;34.60;;;;;;;1.62;100.00;101890.58;1629612;88;21719;-80
2021/11/01 00:07:37;;;;;;;98.05;32.80;;;;;;;1.60;100.00;101892.56;1617470;87;21570;-80
2021/11/01 00:10:06;;;;;;;102.67;34.27;;;;;;;1.58;100.00;101895.38;1612368;89;21129;-81
2021/11/01 00:12:32;;;;;;;106.90;34.05;;;;;;;1.58;100.00;101896.70;1586981;89;21562;-81
2021/11/01 00:14:59;;;;;;;105.72;35.25;;;;;;;1.60;100.00;101895.22;1619278;86;21018;-81
2021/11/01 00:17:26;;;;;;;111.85;36.45;;;;;;;1.63;100.00;101890.89;1635461;86;21050;-80
2021/11/01 00:19:53;;;;;;;102.20;35.00;;;;;;;1.64;100.00;101897.03;1635466;86;21074;-81
2021/11/01 00:22:21;;;;;;;95.38;33.02;;;;;;;1.63;100.00;101892.73;1635664;86;21375;-80
2021/11/01 00:24:48;;;;;;;93.82;32.63;;;;;;;1.64;100.00;101895.20;1635304;86;21062;-80
2021/11/01 00:27:15;;;;;;;96.92;32.33;;;;;;;1.66;100.00;101888.41;1635222;86;21070;-80
2021/11/01 00:29:42;;;;;;;95.47;31.97;;;;;;;1.64;100.00;101887.73;1608325;86;21026;-80
2021/11/01 00:32:08;;;;;;;88.15;30.77;;;;;;;1.64;100.00;101886.41;1635481;86;21626;-80
2021/11/01 00:34:34;;;;;;;87.95;30.75;;;;;;;1.64;100.00;101884.58;1635573;86;21148;-80
2021/11/01 00:37:00;;;;;;;93.30;30.23;;;;;;;1.65;100.00;101880.08;1635622;86;21074;-80
2021/11/01 00:39:27;;;;;;;83.92;29.35;;;;;;;1.64;100.00;101883.75;1635597;86;21232;-81
2021/11/01 00:41:53;;;;;;;79.25;30.08;;;;;;;1.61;100.00;101878.78;1635407;86;21088;-80
2021/11/01 00:44:18;;;;;;;78.02;27.77;;;;;;;1.59;100.00;101873.65;1635767;86;20915;-80
2021/11/01 00:46:44;;;;;;;84.30;28.57;;;;;;;1.56;100.00;101874.81;1635482;86;21646;-84
2021/11/01 00:49:10;;;;;;;75.03;28.80;;;;;;;1.57;100.00;101871.65;1635559;86;20997;-80
2021/11/01 00:51:40;;;;;;;79.32;27.80;;;;;;;1.56;100.00;101874.81;1635833;86;21054;-80
2021/11/01 00:54:04;;;;;;;79.00;26.80;;;;;;;1.57;100.00;101867.16;1635369;86;21633;-80
2021/11/01 00:56:30;;;;;;;86.45;27.90;;;;;;;1.56;100.00;101865.52;1635802;86;21018;-81
2021/11/01 00:58:56;;;;;;;77.20;27.93;;;;;;;1.56;100.00;101868.67;1642225;85;21668;-80
2021/11/01 01:01:22;;;;;;;76.87;27.65;;;;;;;1.56;100.00;101867.34;1647501;85;21566;-80
2021/11/01 01:03:50;;;;;;;81.45;26.93;;;;;;;1.56;100.00;101866.02;1647889;85;21113;-80
2021/11/01 01:06:17;;;;;;;73.42;27.02;;;;;;;1.54;100.00;101860.86;1647720;85;21077;-81
2021/11/01 01:08:43;;;;;;;80.62;28.92;;;;;;;1.52;100.00;101864.17;1647872;85;21123;-80
2021/11/01 01:11:09;;;;;;;77.92;28.20;;;;;;;1.50;100.00;101857.37;1648026;85;21132;-81
2021/11/01 01:13:36;;;;;;;76.97;26.70;;;;;;;1.47;100.00;101856.38;1647781;85;21589;-80
2021/11/01 01:16:11;;;;;;;81.00;27.05;;;;;;;1.44;100.00;101851.40;1647767;85;21668;-80
2021/11/01 01:18:38;;;;;;;;;;;;;;;1.42;100.00;101845.45;1649869;85;21030;-81
2021/11/01 01:23:50;;;;;;;76.22;28.83;;;;;;;1.40;100.00;101840.30;1626876;85;21038;-80
2021/11/01 01:26:16;;;;;;;81.53;28.02;;;;;;;1.38;100.00;101843.61;1647528;85;21671;-81
2021/11/01 01:28:43;;;;;;;75.17;27.98;;;;;;;1.39;100.00;101837.82;1647937;85;20989;-81
2021/11/01 01:31:11;;;;;;;76.22;27.95;;;;;;;1.40;100.00;101832.33;1647956;85;20986;-81
2021/11/01 01:33:38;;;;;;;76.55;27.15;;;;;;;1.41;100.00;101835.80;1647628;85;20985;-81
2021/11/01 01:36:06;;;;;;;80.03;27.13;;;;;;;1.40;100.00;101834.16;1647725;85;21080;-81
2021/11/01 01:38:33;;;;;;;73.35;26.95;;;;;;;1.38;100.00;101829.50;1647741;86;21712;-81
2021/11/01 01:41:01;;;;;;;72.27;26.85;;;;;;;1.35;100.00;101830.19;1647710;85;21545;-80
2021/11/01 01:43:27;;;;;;;74.17;26.68;;;;;;;1.37;100.00;101827.35;1644146;85;21159;-81
2021/11/01 01:45:53;;;;;;;77.65;26.60;;;;;;;1.38;100.00;101826.84;1648174;85;21775;-80
2021/11/01 01:48:19;;;;;;;65.60;25.37;;;;;;;1.39;100.00;101825.37;1647880;85;21158;-81
2021/11/01 01:50:46;;;;;;;74.92;25.10;;;;;;;1.38;100.00;101819.70;1647855;85;20978;-81
2021/11/01 01:53:13;;;;;;;68.87;25.88;;;;;;;1.40;100.00;101818.22;1647575;85;21058;-78
2021/11/01 01:55:39;;;;;;;68.35;25.32;;;;;;;1.41;100.00;101819.87;1647612;85;21597;-81
2021/11/01 01:58:05;;;;;;;71.62;24.77;;;;;;;1.44;100.00;101820.86;1646920;85;21089;-80
2021/11/01 02:03:00;;;;;;;65.10;24.70;;;;;;;1.47;100.00;101816.53;1608098;87;20995;-81
2021/11/01 02:05:38;;;;;;;72.58;25.90;;;;;;;1.46;100.00;101816.22;1608182;88;21058;-81
2021/11/01 02:08:09;;;;;;;62.25;23.60;;;;;;;1.45;100.00;101822.03;1582247;90;21140;-80
2021/11/01 02:10:43;;;;;;;63.05;24.23;;;;;;;1.42;100.00;101818.39;1582571;89;21052;-81
2021/11/01 02:13:19;;;;;;;71.77;25.00;;;;;;;1.41;100.00;101822.53;1578958;90;22033;-80
2021/11/01 02:15:49;;;;;;;66.47;23.92;;;;;;;1.39;100.00;101816.58;1578894;90;21258;-81
2021/11/01 02:18:18;;;;;;;62.23;23.10;;;;;;;1.37;100.00;101810.09;1530449;93;21153;-81
2021/11/01 02:21:02;;;;;;;72.72;24.52;;;;;;;1.36;100.00;101815.08;1530624;93;21173;-81
2021/11/01 02:23:40;;;;;;;67.50;23.83;;;;;;;1.35;100.00;101810.27;1530580;93;21181;-81
2021/11/01 02:26:09;;;;;;;68.07;25.60;;;;;;;1.31;100.00;101809.44;1530770;93;21106;-81
2021/11/01 02:28:38;;;;;;;62.27;23.40;;;;;;;1.28;100.00;101815.91;1530637;93;21085;-81
2021/11/01 02:31:07;;;;;;;62.80;23.27;;;;;;;1.25;100.00;101817.58;1531053;93;21112;-80
2021/11/01 02:33:34;;;;;;;71.70;25.25;;;;;;;1.23;100.00;101812.92;1511946;93;21617;-81
2021/11/01 02:36:00;;;;;;;74.50;24.98;;;;;;;1.23;100.00;101804.95;1531072;93;21005;-81
2021/11/01 02:38:29;;;;;;;66.47;24.87;;;;;;;1.23;100.00;101810.27;1530856;93;21175;-81
2021/11/01 02:40:55;;;;;;;67.40;23.73;;;;;;;1.25;100.00;101805.63;1530585;93;21577;-81
2021/11/01 02:43:21;;;;;;;64.95;23.92;;;;;;;1.27;100.00;101806.30;1530786;93;20962;-80
2021/11/01 02:45:47;;;;;;;71.57;25.37;;;;;;;1.27;100.00;101804.15;1537328;92;21134;-81
2021/11/01 02:48:14;;;;;;;73.37;25.20;;;;;;;1.26;100.00;101797.16;1541197;92;21141;-80
2021/11/01 02:50:40;;;;;;;62.67;23.77;;;;;;;1.26;100.00;101799.31;1541303;92;21942;-81
2021/11/01 02:53:07;;;;;;;66.75;24.57;;;;;;;1.24;100.00;101797.34;1541028;92;21174;-80
2021/11/01 02:55:34;;;;;;;61.63;22.70;;;;;;;1.27;100.00;101798.84;1541459;92;21134;-81
2021/11/01 02:58:00;;;;;;;61.00;22.93;;;;;;;1.28;100.00;101799.98;1541389;91;21280;-80
2021/11/01 03:00:28;;;;;;;62.75;22.80;;;;;;;1.30;100.00;101798.50;1546961;91;21125;-80
2021/11/01 03:02:55;;;;;;;63.50;23.27;;;;;;;1.30;100.00;101798.00;1548465;91;21128;-81
2021/11/01 03:05:25;;;;;;;67.92;24.47;;;;;;;1.33;100.00;101789.69;1548801;91;21044;-80
2021/11/01 03:07:55;;;;;;;70.50;25.00;;;;;;;1.39;100.00;101790.84;1548998;91;21094;-80
2021/11/01 03:10:24;;;;;;;67.40;24.35;;;;;;;1.45;100.00;101790.66;1584953;88;21562;-80
2021/11/01 03:12:51;;;;;;;69.82;24.37;;;;;;;1.48;100.00;101786.34;1603613;88;21096;-80
2021/11/01 03:15:27;;;;;;;67.97;25.45;;;;;;;1.52;100.00;101781.83;1603662;88;21048;-80
2021/11/01 03:18:06;;;;;;;70.17;25.35;;;;;;;1.57;100.00;101790.63;1603567;88;21471;-80
2021/11/01 03:20:38;;;;;;;70.60;26.20;;;;;;;1.63;100.00;101779.31;1607045;86;21164;-80
2021/11/01 03:23:08;;;;;;;78.15;27.75;;;;;;;1.70;100.00;101779.45;1658495;85;21071;-80
2021/11/01 03:25:42;;;;;;;71.15;26.48;;;;;;;1.77;100.00;101781.25;1662548;86;21072;-81
2021/11/01 03:28:11;;;;;;;84.15;27.15;;;;;;;1.86;100.00;101774.58;1603655;89;21195;-81
2021/11/01 03:30:40;;;;;;;79.90;27.52;;;;;;;1.95;100.00;101776.20;1606513;89;21030;-81
2021/11/01 03:33:07;;;;;;;77.05;27.00;;;;;;;2.02;100.00;101771.83;1606392;89;21162;-81
2021/11/01 03:35:35;;;;;;;73.95;28.27;;;;;;;2.09;100.00;101774.14;1585205;89;21111;-80
2021/11/01 03:38:03;;;;;;;79.50;29.37;;;;;;;2.15;100.00;101766.78;1585421;89;21117;-79
2021/11/01 03:40:33;;;;;;;84.05;28.38;;;;;;;2.23;100.00;101770.70;1606415;88;21362;-80
2021/11/01 03:43:02;;;;;;;85.15;28.57;;;;;;;2.33;100.00;101771.83;1585347;89;21141;-80
2021/11/01 03:45:28;;;;;;;87.97;30.40;;;;;;;2.43;100.00;101768.92;1584749;89;21031;-80
2021/11/01 03:48:02;;;;;;;86.95;28.52;;;;;;;2.53;100.00;101764.22;1605521;88;21004;-79
2021/11/01 03:52:53;;;;;;;93.22;30.15;;;;;;;2.75;100.00;101759.88;1605221;88;20987;-80
2021/11/01 03:55:20;;;;;;;88.55;29.85;;;;;;;2.88;100.00;101752.13;1604917;88;21132;-80
2021/11/01 03:57:47;;;;;;;90.55;31.27;;;;;;;3.00;100.00;101746.33;1604936;88;22867;-80
2021/11/01 04:00:15;;;;;;;93.00;29.72;;;;;;;3.10;100.00;101744.25;1594015;89;21048;-80
2021/11/01 04:02:46;;;;;;;76.57;27.48;;;;;;;3.22;100.00;101743.30;1593998;90;21090;-81
2021/11/01 04:05:12;;;;;;;69.37;25.40;;;;;;;3.29;100.00;101743.70;1594087;90;21335;-80
2021/11/01 04:07:39;;;;;;;81.40;28.23;;;;;;;3.34;100.00;101745.31;1594192;90;21101;-80
2021/11/01 04:10:08;;;;;;;67.05;24.50;;;;;;;3.38;100.00;101740.44;1572513;90;21111;-80
2021/11/01 04:12:37;;;;;;;62.25;24.10;;;;;;;3.44;100.00;101741.03;1570467;90;21123;-81
2021/11/01 04:17:43;;;;;;;75.37;24.07;;;;;;;3.53;100.00;101749.77;1562050;90;22223;-80
2021/11/01 04:22:51;;;;;;;64.50;23.95;;;;;;;3.60;100.00;101740.03;1586686;90;21132;-80
2021/11/01 04:25:16;;;;;;;64.42;23.15;;;;;;;3.62;100.00;101738.84;1567925;91;21036;-83
2021/11/01 04:27:44;;;;;;;61.18;22.60;;;;;;;3.61;100.00;101734.50;1568023;91;21058;-80
2021/11/01 04:30:11;;;;;;;65.08;23.38;;;;;;;3.61;100.00;101736.34;1568035;90;21141;-80
2021/11/01 04:32:42;;;;;;;65.20;24.27;;;;;;;3.59;100.00;101729.06;1568218;91;22691;-81
2021/11/01 04:37:45;;;;;;;63.10;23.55;;;;;;;3.59;100.00;101731.22;1503801;95;21124;-81
2021/11/01 04:53:54;;;;;;;69.00;25.45;;;;;;;3.66;100.00;101715.81;1503711;94;21572;-80
2021/11/01 04:56:25;;;;;;;69.58;25.43;;;;;;;3.72;100.00;101712.40;1504002;94;21118;-80
2021/11/01 04:58:56;;;;;;;75.97;26.15;;;;;;;3.79;100.00;101714.11;1501105;94;21102;-84
2021/11/01 05:01:37;;;;;;;77.35;26.23;;;;;;;3.89;100.00;101715.17;1513902;93;21086;-81
2021/11/01 05:04:03;;;;;;;68.37;24.87;;;;;;;4.00;100.00;101720.02;1515881;91;21190;-80
2021/11/01 05:06:26;;;;;;;65.75;25.20;;;;;;;4.10;100.00;101719.19;1507711;91;21120;-81
2021/11/01 05:09:00;;;;;;;76.97;27.02;;;;;;;4.22;100.00;101718.70;1514280;93;21674;-82
2021/11/01 05:13:48;;;;;;;66.72;24.47;;;;;;;4.49;100.00;101716.59;1465800;97;21150;-81
2021/11/01 05:16:18;;;;;;;64.90;23.35;;;;;;;4.69;100.00;101713.27;1464468;98;21069;-81
2021/11/01 05:23:37;;;;;;;70.83;24.57;;;;;;;5.42;100.00;101711.91;1466947;96;20974;-81
2021/11/01 05:26:09;;;;;;;69.27;24.02;;;;;;;5.49;100.00;101711.11;1471494;96;21761;-84
2021/11/01 05:28:43;;;;;;;62.30;24.60;;;;;;;5.49;100.00;101713.27;1477219;93;21104;-82
2021/11/01 05:31:19;;;;;;;62.30;22.10;;;;;;;5.55;100.00;101711.66;1469057;95;21291;-82
2021/11/01 05:36:15;;;;;;;50.12;20.80;;;;;;;5.77;100.00;101708.37;1525141;92;21103;-80
2021/11/01 05:38:41;;;;;;;44.50;18.98;;;;;;;6.18;100.00;101714.14;1526485;92;21022;-82
2021/11/01 05:41:08;;;;;;;42.27;18.50;;;;;;;6.67;100.00;101707.61;1546359;92;20940;-82
2021/11/01 05:43:35;;;;;;;44.73;18.60;;;;;;;7.45;100.00;101711.20;1526595;92;21079;-81
2021/11/01 05:46:02;;;;;;;47.90;18.95;;;;;;;8.31;100.00;101713.16;1526478;94;21231;-82
2021/11/01 05:48:28;;;;;;;39.13;17.87;;;;;;;9.18;100.00;101709.26;1526489;92;21118;-82
2021/11/01 05:50:55;;;;;;;45.83;17.12;;;;;;;10.08;100.00;101710.72;1544401;89;21114;-83
2021/11/01 05:53:24;;;;;;;37.23;16.30;;;;;;;10.82;100.00;101709.90;1582215;89;21147;-82
2021/11/01 05:55:58;;;;;;;42.38;17.25;;;;;;;11.38;100.00;101706.28;1582223;89;21134;-82
2021/11/01 06:03:41;;;;;;;65.15;22.07;;;;;;;13.51;100.00;101700.73;1566689;90;21109;-82
2021/11/01 06:08:44;;;;;;;34.92;14.98;;;;;;;14.37;100.00;101697.84;1577550;89;21125;-83
2021/11/01 06:13:55;;;;;;;33.18;14.80;;;;;;;14.91;100.00;101705.36;1577996;89;21610;-82
2021/11/01 06:16:22;;;;;;;27.65;14.40;;;;;;;15.22;100.00;101700.09;1556850;92;21139;-82
2021/11/01 06:18:49;;;;;;;32.73;16.42;;;;;;;15.73;100.00;101694.08;1557137;90;21547;-82
2021/11/01 06:21:17;;;;;;;29.00;14.98;;;;;;;16.19;96.02;101692.83;1557042;90;21666;-82
2021/11/01 06:23:57;;;;;;;37.17;15.68;;;;;;;16.35;85.30;101698.53;1555311;90;21838;-83
2021/11/01 06:26:25;;;;;;;38.30;17.87;;;;;;;16.55;80.38;101691.73;1565131;90;21613;-82
2021/11/01 06:28:56;;;;;;;43.48;17.42;;;;;;;16.65;78.43;101689.57;1558362;90;21177;-84
2021/11/01 06:31:24;;;;;;;36.28;15.70;;;;;;;17.12;77.00;101691.67;1554972;92;21091;-83
2021/11/01 08:24:18;;;;;;;40.40;16.35;;;;;;;11.94;100.00;101636.39;1720767;81;21069;-83
2021/11/01 08:42:30;;;;;;;43.23;16.95;;;;;;;11.71;100.00;101605.73;1685567;85;21145;-83
2021/11/01 08:44:54;;;;;;;41.35;17.82;;;;;;;11.66;100.00;101593.47;1682285;85;21097;-83
2021/11/01 09:06:06;;;;;;;60.58;22.90;;;;;;;11.59;100.00;101613.06;1590985;90;21068;-85
2021/11/01 09:26:54;;;;;;;55.52;19.17;;;;;;;11.40;100.00;101601.62;1471655;96;21116;-86
2021/11/01 09:42:36;;;;;;;39.38;15.63;;;;;;;12.02;100.00;101576.56;1473991;96;21209;-84
2021/11/01 09:45:03;;;;;;;40.60;16.12;;;;;;;12.18;100.00;101570.36;1492040;95;21135;-85
2021/11/01 09:47:30;;;;;;;40.88;15.78;;;;;;;12.18;100.00;101561.44;1504240;94;21029;-84
2021/11/01 09:49:56;;;;;;;42.05;16.77;;;;;;;12.17;100.00;101559.24;1527053;94;21059;-84
2021/11/01 09:52:22;;;;;;;43.68;16.57;;;;;;;12.17;100.00;101547.08;1508077;94;20940;-85
2021/11/01 09:54:53;;;;;;;37.35;15.50;;;;;;;12.09;100.00;101548.87;1526984;94;21230;-85
2021/11/01 09:59:46;;;;;;;44.00;18.02;;;;;;;11.83;100.00;101552.47;1628249;86;21129;-84
2021/11/01 10:02:15;;;;;;;51.73;17.40;;;;;;;11.85;100.00;101536.03;1650179;86;21050;-85
2021/11/01 10:04:44;;;;;;;44.33;16.17;;;;;;;11.83;100.00;101540.31;1735077;81;21075;-84
2021/11/01 10:07:21;;;;;;;44.53;16.35;;;;;;;11.77;100.00;101544.53;1720015;81;21042;-85
2021/11/01 10:09:54;;;;;;;41.48;16.07;;;;;;;11.77;100.00;101550.74;1703505;82;21075;-84
2021/11/01 10:12:32;;;;;;;39.20;16.07;;;;;;;11.83;100.00;101545.71;1698040;84;21030;-85
2021/11/01 10:18:05;;;;;;;49.23;17.45;;;;;;;11.81;100.00;101536.22;1694277;84;21090;-85
2021/11/01 10:20:36;;;;;;;47.90;17.15;;;;;;;11.76;100.00;101542.33;1641921;87;21141;-84
2021/11/01 10:23:25;;;;;;;43.90;16.50;;;;;;;11.76;100.00;101542.33;1590836;89;21117;-84
2021/11/01 10:25:55;;;;;;;42.95;16.25;;;;;;;11.71;100.00;101544.97;1597079;89;21105;-85
2021/11/01 10:28:30;;;;;;;47.88;16.95;;;;;;;11.67;100.00;101544.34;1596515;89;21232;-84
2021/11/01 10:31:09;;;;;;;45.58;16.67;;;;;;;11.64;100.00;101534.84;1543398;93;21057;-83
2021/11/01 10:33:44;;;;;;;49.23;15.95;;;;;;;11.64;100.00;101513.23;1499606;95;21152;-84
2021/11/01 10:36:07;;;;;;;44.45;16.00;;;;;;;11.64;100.00;101505.14;1499950;94;21002;-84
2021/11/01 10:38:37;;;;;;;45.43;15.68;;;;;;;11.67;100.00;101507.35;1498325;95;21805;-85
2021/11/01 11:14:17;;;;;;;58.02;22.73;;;;;;;11.77;100.00;101433.27;1365476;104;21221;-84
2021/11/01 11:21:59;;;;;;;64.82;24.57;;;;;;;11.78;100.00;101428.14;1372961;102;21191;-85
2021/11/01 11:37:38;;;;;;;65.83;24.12;;;;;;;11.89;100.00;101423.75;1462040;96;21621;-84
2021/11/01 11:42:51;;;;;;;59.73;22.87;;;;;;;12.04;100.00;101422.61;1477634;95;21125;-84
2021/11/01 11:50:30;;;;;;;75.78;26.20;;;;;;;12.04;100.00;101415.05;1554260;92;21165;-84
2021/11/01 11:53:22;;;;;;;72.60;26.90;;;;;;;12.03;100.00;101415.59;1565628;90;21965;-85
2021/11/01 11:56:07;;;;;;;69.62;24.35;;;;;;;12.00;100.00;101412.03;1558421;90;21096;-86
2021/11/01 11:58:38;;;;;;;59.88;23.57;;;;;;;12.08;100.00;101403.20;1496316;94;21228;-84
2021/11/01 12:01:31;;;;;;;67.22;24.37;;;;;;;12.15;100.00;101406.02;1470793;96;21110;-84
2021/11/01 12:04:08;;;;;;;58.57;23.13;;;;;;;12.16;100.00;101394.13;1470891;97;21649;-83
2021/11/01 12:06:56;;;;;;;57.67;22.17;;;;;;;12.16;100.00;101400.08;1554257;90;21141;-85
2021/11/01 12:09:26;;;;;;;57.53;21.00;;;;;;;12.18;100.00;101400.11;1526669;92;21108;-86
2021/11/01 12:17:04;;;;;;;52.83;19.30;;;;;;;12.23;100.00;101406.91;1540794;91;21711;-85
2021/11/01 12:17:12;;;;;;;46.28;19.57;;;;;;;12.23;100.00;101408.27;1513783;93;21113;-84
2021/11/01 12:19:38;;;;;;;57.45;21.02;;;;;;;12.23;100.00;101401.51;1513613;93;21061;-85
2021/11/01 12:22:11;;;;;;;48.65;19.05;;;;;;;12.22;100.00;101398.53;1493696;96;21173;-85
2021/11/01 12:24:37;;;;;;;51.55;18.87;;;;;;;12.26;100.00;101401.55;1454592;97;21632;-86
2021/11/01 12:29:38;;;;;;;44.83;17.65;;;;;;;12.23;100.00;101402.86;1412540;100;21125;-86
2021/11/01 12:32:10;;;;;;;51.15;18.98;;;;;;;12.24;100.00;101405.86;1413396;100;22035;-85
2021/11/01 12:37:27;;;;;;;55.23;19.25;;;;;;;12.25;100.00;101402.63;1411082;100;21669;-85
2021/11/01 12:39:52;;;;;;;48.98;17.67;;;;;;;12.24;100.00;101407.75;1410404;101;21161;-85
2021/11/01 12:58:58;;;;;;;56.98;22.27;;;;;;;12.07;100.00;101404.28;1417845;99;21228;-85
2021/11/01 13:01:28;;;;;;;52.67;21.10;;;;;;;12.03;100.00;101403.43;1407935;100;22332;-85
2021/11/01 13:09:26;;;;;;;52.70;21.33;;;;;;;11.97;100.00;101394.98;1449128;97;21141;-85
2021/11/01 13:12:03;;;;;;;56.85;20.08;;;;;;;11.93;100.00;101385.72;1428540;100;21662;-85
2021/11/01 13:19:48;;;;;;;45.63;20.00;;;;;;;11.84;100.00;101385.83;1376535;104;21546;-85
2021/11/01 13:22:24;;;;;;;50.58;21.37;;;;;;;11.78;100.00;101383.59;1360164;104;21159;-86
2021/11/01 13:38:42;;;;;;;86.32;29.90;;;;;;;11.50;100.00;101367.00;1403494;102;21129;-85
2021/11/01 13:43:45;;;;;;;60.80;24.82;;;;;;;11.41;100.00;101364.39;1364746;105;21201;-88
2021/11/01 13:46:24;;;;;;;59.73;22.58;;;;;;;11.33;100.00;101352.16;1365005;105;21167;-87
2021/11/01 13:48:56;;;;;;;52.03;22.02;;;;;;;11.28;100.00;101341.80;1336910;107;21259;-86
2021/11/01 13:51:25;;;;;;;54.97;22.57;;;;;;;11.20;100.00;101340.86;1335885;107;21235;-86
2021/11/01 13:56:34;;;;;;;68.40;23.83;;;;;;;11.07;100.00;101338.78;1283250;110;21220;-86
2021/11/01 13:59:10;;;;;;;76.95;24.75;;;;;;;11.02;100.00;101341.92;1294691;110;21177;-86
2021/11/01 14:12:31;;;;;;;94.05;34.40;;;;;;;10.63;100.00;101335.05;1264940;112;21198;-87
2021/11/01 14:15:05;;;;;;;91.55;32.90;;;;;;;10.54;100.00;101333.27;1261726;110;21231;-87
2021/11/01 14:17:36;;;;;;;89.85;34.00;;;;;;;10.44;100.00;101333.06;1321913;105;21687;-86
2021/11/01 14:36:14;;;;;;;94.20;33.85;;;;;;;9.92;100.00;101321.78;1380476;103;21210;-87
2021/11/01 15:10:41;;;;;;;154.40;51.15;;;;;;;8.62;100.00;101303.95;1557151;90;21113;-88
2021/11/01 15:17:49;;;;;;;127.82;48.55;;;;;;;8.45;100.00;101302.96;1549533;92;21125;-87
2021/11/01 15:20:21;;;;;;;132.80;49.20;;;;;;;8.39;100.00;101302.00;1545091;91;21132;-88
2021/11/01 15:33:45;;;;;;;159.78;55.00;;;;;;;8.22;100.00;101299.62;1540749;92;21091;-87
2021/11/01 16:16:53;;;;;;;146.68;46.37;;;;;;;7.89;100.00;101329.03;1738976;81;21153;-89
2021/11/01 16:19:06;;;;;;;126.15;44.00;;;;;;;7.87;100.00;101328.42;1748424;81;20960;-90
2021/11/01 16:21:33;;;;;;;116.08;38.50;;;;;;;7.84;100.00;101323.50;1753204;81;21000;-90
2021/11/01 16:23:59;;;;;;;113.30;37.05;;;;;;;7.83;100.00;101323.22;1753213;81;21122;-89
2021/11/01 16:26:27;;;;;;;137.07;40.03;;;;;;;7.82;100.00;101317.00;1746459;81;21562;-89
2021/11/01 16:29:05;;;;;;;112.10;35.30;;;;;;;7.80;100.00;101321.80;1746431;82;21510;-90
2021/11/01 16:31:35;;;;;;;112.57;34.63;;;;;;;7.79;100.00;101322.81;1742340;82;22108;-88
2021/11/01 16:34:21;;;;;;;91.90;30.45;;;;;;;7.77;100.00;101328.95;1721652;82;21026;-88
2021/11/01 16:39:17;;;;;;;88.37;30.52;;;;;;;7.79;100.00;101332.73;1746696;81;21047;-87
2021/11/01 16:41:47;;;;;;;93.05;33.23;;;;;;;7.78;100.00;101339.16;1747077;82;21782;-88
2021/11/01 16:44:22;;;;;;;103.25;34.33;;;;;;;7.78;100.00;101327.08;1746795;82;21011;-88
2021/11/01 16:46:49;;;;;;;96.70;34.57;;;;;;;7.77;100.00;101326.80;1742785;82;21082;-87
2021/11/01 16:49:16;;;;;;;99.47;33.02;;;;;;;7.79;100.00;101326.84;1746359;81;21475;-87
2021/11/01 16:51:44;;;;;;;85.75;31.57;;;;;;;7.85;100.00;101332.69;1746768;81;21086;-86
2021/11/01 16:54:14;;;;;;;89.77;32.23;;;;;;;7.87;100.00;101338.63;1746778;82;21109;-87
2021/11/01 16:56:55;;;;;;;87.15;31.20;;;;;;;7.90;100.00;101342.20;1741665;82;21031;-88
2021/11/01 16:59:28;;;;;;;93.25;31.93;;;;;;;7.94;100.00;101335.86;1729250;82;21515;-88
2021/11/01 17:01:51;;;;;;;88.10;30.50;;;;;;;7.94;100.00;101331.34;1736526;82;21073;-87
2021/11/01 17:04:17;;;;;;;97.55;31.12;;;;;;;7.97;100.00;101339.44;1719772;83;21315;-87
2021/11/01 17:06:56;;;;;;;89.45;30.97;;;;;;;7.97;100.00;101331.39;1713400;82;22502;-87
2021/11/01 17:23:18;;;;;;;97.08;32.98;;;;;;;7.69;100.00;101309.93;1587153;88;21188;-88
2021/11/01 17:25:45;;;;;;;107.95;38.33;;;;;;;7.67;100.00;101314.69;1594025;88;21038;-87
2021/11/01 17:36:25;;;;;;;99.92;35.10;;;;;;;7.72;100.00;101317.53;1600860;89;21157;-88
2021/11/01 18:37:33;;;;;;;90.20;32.33;;;;;;;7.15;100.00;101228.92;1704122;83;21708;-88
2021/11/01 18:53:04;;;;;;;96.35;33.30;;;;;;;7.10;100.00;101238.95;1557271;90;21231;-88
2021/11/01 18:55:33;;;;;;;98.87;34.75;;;;;;;7.14;100.00;101243.34;1538706;93;22132;-88
2021/11/01 18:58:01;;;;;;;111.52;34.58;;;;;;;7.16;100.00;101247.45;1539128;93;21113;-87
2021/11/01 19:00:28;;;;;;;100.85;37.48;;;;;;;7.19;100.00;101248.88;1542250;93;21758;-88
2021/11/01 19:02:58;;;;;;;98.97;36.10;;;;;;;7.23;100.00;101246.05;1542029;93;21085;-87
2021/11/01 19:08:13;;;;;;;108.52;38.67;;;;;;;7.27;100.00;101241.37;1500250;95;21147;-86
2021/11/01 20:05:21;;;;;;;123.82;41.33;;;;;;;7.64;100.00;101217.22;1617387;87;21122;-87
2021/11/01 20:11:11;;;;;;;118.05;42.33;;;;;;;7.69;100.00;101211.20;1645143;86;21581;-88
2021/11/01 21:25:55;;;;;;;114.08;41.02;;;;;;;7.61;100.00;101150.62;1683054;83;21079;-90
2021/11/01 21:28:22;;;;;;;113.88;39.13;;;;;;;7.63;100.00;101139.16;1672023;85;21062;-91
2021/11/01 21:30:48;;;;;;;127.42;42.17;;;;;;;7.65;100.00;101139.75;1672315;85;21059;-90
2021/11/01 21:33:22;;;;;;;114.72;40.38;;;;;;;7.66;100.00;101135.20;1672018;85;21579;-89
2021/11/01 21:35:50;;;;;;;119.02;40.58;;;;;;;7.67;100.00;101136.30;1667956;85;21062;-90
2021/11/01 21:38:16;;;;;;;119.45;40.17;;;;;;;7.68;100.00;101125.07;1671832;85;21010;-89
2021/11/01 21:40:47;;;;;;;124.20;41.15;;;;;;;7.70;100.00;101121.09;1672075;85;21063;-90
2021/11/01 21:43:13;;;;;;;117.17;41.50;;;;;;;7.70;100.00;101125.11;1672094;85;21195;-88
2021/11/01 21:45:40;;;;;;;133.87;43.98;;;;;;;7.71;100.00;101120.59;1672351;85;21016;-90
2021/11/01 21:48:06;;;;;;;125.53;43.63;;;;;;;7.73;100.00;101127.38;1667954;85;20999;-89
2021/11/01 21:50:33;;;;;;;135.78;44.67;;;;;;;7.77;100.00;101117.52;1672262;85;21944;-89
2021/11/01 21:53:01;;;;;;;141.03;43.92;;;;;;;7.78;100.00;101120.49;1672159;85;21582;-90
2021/11/01 21:55:28;;;;;;;130.63;43.25;;;;;;;7.80;100.00;101118.41;1671574;85;21070;-89
2021/11/01 22:56:38;;;;;;;135.88;43.75;;;;;;;8.30;100.00;101044.22;1564125;89;21262;-91
2021/11/01 22:59:02;;;;;;;147.70;45.43;;;;;;;8.30;100.00;101023.55;1592045;88;21108;-90
2021/11/01 23:01:36;;;;;;;141.95;44.73;;;;;;;8.35;100.00;101034.41;1595145;89;21068;-89
2021/11/01 23:33:49;;;;;;;135.25;44.75;;;;;;;8.72;100.00;101004.60;1667540;86;21093;-89
2021/11/01 23:36:15;;;;;;;127.53;42.95;;;;;;;8.76;100.00;100997.69;1668201;86;21110;-89
2021/11/01 23:38:41;;;;;;;140.85;45.08;;;;;;;8.81;100.00;101003.70;1667756;86;21641;-89
2021/11/01 23:41:07;;;;;;;126.42;43.73;;;;;;;8.84;100.00;101011.29;1718585;83;20981;-89
2021/11/01 23:43:34;;;;;;;147.13;47.65;;;;;;;8.89;100.00;101007.38;1721220;83;20863;-89
2021/11/01 23:46:00;;;;;;;143.17;47.20;;;;;;;8.95;100.00;101001.57;1721033;83;21045;-88
2021/11/01 23:48:25;;;;;;;132.72;45.98;;;;;;;9.01;100.00;101000.08;1721227;83;21085;-88
2021/11/01 23:50:52;;;;;;;131.15;44.45;;;;;;;9.05;100.00;100998.53;1721342;83;20851;-89
2021/11/01 23:56:06;;;;;;;125.58;41.15;;;;;;;9.13;100.00;100983.09;1721060;83;21073;-88
2021/11/01 23:58:32;;;;;;;131.70;44.45;;;;;;;9.13;100.00;100980.41;1721275;83;21097;-89
